Elmwood, Missouri
Current Conditions -  °F | °C
As of 11:58 AM on Sunday 21 Dec 2014 (Local Time) from KSZL Reporting Station
Overcast Overcast  
Wind Chill: 36°   Ceiling: 900
Heat Index: 43°   Visibility: 9mi
Dew Point: 40°   Wind: 15mph
Humidity: 90%   Direction: 190°S
Pressure: 29.99"   Gusts: NA
Location:  39.0909°N, 93.4013°W
Report Text: KSZL 211758Z AUTO 19013KT 9SM OVC009 06/05 A2999 RMK AO2 SLP163 60000 T00620047 10062 20044 57028 $
Loading
Personal Weather Stations






























Interactive Weather Map New forecast layout! Learn more

10-Day Weather Forecast

Advertisements
Track Severe Weather on mobile